Time;durP1;ratioP1;P1;durP2;ratioP2;P2;SDS_P1;SDS_P2;PMS_P1;PMS_P2;Temp;Humidity;BMP_temperature;BMP_pressure;BME280_temperature;BME280_humidity;BME280_pressure;Samples;Min_cycle;Max_cycle;Signal;HPM_P1;HPM_P2
2023/04/27 00:01:11;;;;;;;10.70;6.68;;;3.00;99.90;;;;;;4994419;28;20439;-76
2023/04/27 00:03:37;;;;;;;12.00;7.32;;;3.00;99.90;;;;;;4988684;28;20429;-74
2023/04/27 00:06:03;;;;;;;9.45;6.00;;;3.00;99.90;;;;;;5005507;28;20456;-75
2023/04/27 00:08:29;;;;;;;9.88;6.95;;;3.00;99.90;;;;;;5006204;28;20794;-76
2023/04/27 00:10:56;;;;;;;9.23;5.87;;;2.80;99.90;;;;;;4998749;28;20430;-73
2023/04/27 00:13:21;;;;;;;10.45;6.65;;;2.90;99.90;;;;;;5006810;28;20437;-74
2023/04/27 00:15:47;;;;;;;8.97;6.43;;;3.00;99.90;;;;;;5004043;28;20932;-72
2023/04/27 00:18:13;;;;;;;11.23;6.77;;;2.80;99.90;;;;;;5015006;28;20428;-74
2023/04/27 00:20:39;;;;;;;10.45;6.18;;;2.90;99.90;;;;;;5004825;28;20444;-75
2023/04/27 00:23:05;;;;;;;8.07;6.70;;;2.80;99.90;;;;;;4990001;28;21064;-74
2023/04/27 00:25:31;;;;;;;8.95;5.78;;;2.60;99.90;;;;;;5006676;28;20405;-75
2023/04/27 00:27:57;;;;;;;12.02;6.88;;;2.70;99.90;;;;;;4988891;28;20922;-75
2023/04/27 00:30:23;;;;;;;9.23;5.67;;;2.70;99.90;;;;;;5001732;28;20474;-74
2023/04/27 00:32:48;;;;;;;8.30;5.40;;;2.60;99.90;;;;;;4992498;28;20428;-74
2023/04/27 00:35:14;;;;;;;9.67;6.27;;;2.60;99.90;;;;;;4995108;28;20861;-74
2023/04/27 00:37:40;;;;;;;7.93;5.60;;;2.40;99.90;;;;;;5006632;28;20526;-73
2023/04/27 00:40:06;;;;;;;12.20;6.10;;;2.50;99.90;;;;;;5003914;28;20436;-73
2023/04/27 00:42:33;;;;;;;9.47;5.93;;;2.50;99.90;;;;;;4991601;28;20439;-74
2023/04/27 00:44:59;;;;;;;8.52;6.40;;;2.50;99.90;;;;;;4988185;28;20423;-73
2023/04/27 00:47:25;;;;;;;10.85;6.13;;;2.40;99.90;;;;;;4997773;28;20510;-74
2023/04/27 00:49:51;;;;;;;7.75;5.53;;;2.40;99.90;;;;;;4994593;28;20436;-73
2023/04/27 00:52:17;;;;;;;9.13;6.10;;;2.40;99.90;;;;;;5005813;28;20987;-74
2023/04/27 00:54:43;;;;;;;10.83;6.13;;;2.40;99.90;;;;;;4994638;28;20445;-74
2023/04/27 00:57:09;;;;;;;11.05;6.50;;;2.30;99.90;;;;;;4999984;28;20765;-74
2023/04/27 00:59:35;;;;;;;10.80;5.82;;;2.30;99.90;;;;;;4988521;28;20524;-74
2023/04/27 01:02:01;;;;;;;7.43;5.70;;;2.20;99.90;;;;;;4996285;28;20615;-73
2023/04/27 01:04:28;;;;;;;9.55;6.20;;;2.30;99.90;;;;;;4986211;28;21054;-75
2023/04/27 01:06:54;;;;;;;8.50;5.40;;;2.20;99.90;;;;;;4997369;28;20448;-75
2023/04/27 01:09:20;;;;;;;9.47;6.00;;;2.20;99.90;;;;;;5002623;28;20448;-76
2023/04/27 01:11:46;;;;;;;8.50;6.30;;;2.20;99.90;;;;;;5057104;23;20441;-76
2023/04/27 01:14:12;;;;;;;9.20;6.38;;;2.20;99.90;;;;;;5011103;28;20518;-74
2023/04/27 01:16:38;;;;;;;12.57;6.57;;;2.20;99.90;;;;;;5005896;28;20515;-74
2023/04/27 01:19:05;;;;;;;11.50;6.17;;;2.10;99.90;;;;;;5000351;28;22506;-77
2023/04/27 01:21:31;;;;;;;7.50;6.20;;;2.20;99.90;;;;;;5007369;28;20432;-75
2023/04/27 01:23:57;;;;;;;9.97;7.20;;;2.10;99.90;;;;;;5005139;28;20424;-75
2023/04/27 01:26:22;;;;;;;7.93;6.03;;;2.20;99.90;;;;;;5007758;28;20424;-74
2023/04/27 01:28:48;;;;;;;6.67;5.73;;;2.10;99.90;;;;;;5004590;28;20491;-74
2023/04/27 01:31:14;;;;;;;6.70;5.63;;;2.10;99.90;;;;;;5006382;28;20468;-75
2023/04/27 01:33:40;;;;;;;9.35;6.18;;;2.10;99.90;;;;;;5004651;28;21042;-74
2023/04/27 01:36:07;;;;;;;9.03;6.53;;;2.10;99.90;;;;;;5005792;28;21020;-74
2023/04/27 01:38:33;;;;;;;10.63;6.45;;;2.10;99.90;;;;;;4985382;28;20442;-75
2023/04/27 01:41:01;;;;;;;13.27;6.85;;;2.00;99.90;;;;;;5005857;28;20429;-76
2023/04/27 01:43:28;;;;;;;12.27;6.88;;;2.10;99.90;;;;;;5002593;28;20468;-77
2023/04/27 01:45:54;;;;;;;10.23;6.68;;;2.00;99.90;;;;;;5007257;28;20990;-73
2023/04/27 01:48:19;;;;;;;10.20;7.13;;;2.00;99.90;;;;;;5002386;28;20424;-74
2023/04/27 01:50:45;;;;;;;7.47;6.22;;;2.00;99.90;;;;;;5004643;28;20480;-75
2023/04/27 01:53:11;;;;;;;9.75;6.32;;;2.10;99.90;;;;;;5004664;28;20507;-75
2023/04/27 01:55:36;;;;;;;12.05;6.70;;;2.10;99.90;;;;;;5005259;28;20433;-76
2023/04/27 01:58:02;;;;;;;7.07;5.75;;;2.30;99.90;;;;;;5006702;28;20431;-74
2023/04/27 02:00:28;;;;;;;9.20;6.00;;;2.10;99.90;;;;;;5004464;28;20429;-76
2023/04/27 02:02:56;;;;;;;7.33;6.00;;;2.20;99.90;;;;;;5005241;28;20941;-76
2023/04/27 02:05:22;;;;;;;9.83;5.60;;;2.30;99.90;;;;;;5006817;28;20443;-75
2023/04/27 02:07:48;;;;;;;8.43;5.85;;;2.10;99.90;;;;;;5005970;28;20428;-75
2023/04/27 02:10:14;;;;;;;6.43;5.60;;;2.00;99.90;;;;;;5000343;28;20441;-74
2023/04/27 02:12:40;;;;;;;9.90;6.43;;;2.10;99.90;;;;;;4999807;28;20425;-73
2023/04/27 02:15:06;;;;;;;12.17;6.60;;;2.20;99.90;;;;;;5004182;28;20442;-75
2023/04/27 02:17:35;;;;;;;8.25;6.45;;;2.20;99.90;;;;;;5005208;28;20824;-74
2023/04/27 02:20:00;;;;;;;8.77;6.85;;;2.20;99.90;;;;;;5005103;28;20432;-74
2023/04/27 02:22:26;;;;;;;9.85;6.35;;;2.30;99.90;;;;;;5006288;28;20417;-75
2023/04/27 02:24:52;;;;;;;8.93;6.20;;;2.30;99.90;;;;;;5005497;28;20425;-76
2023/04/27 02:27:17;;;;;;;9.90;6.57;;;2.40;99.90;;;;;;5004879;28;22041;-75
2023/04/27 02:29:43;;;;;;;9.52;6.50;;;2.30;99.90;;;;;;5005316;28;20424;-76
2023/04/27 02:32:09;;;;;;;9.88;6.10;;;2.30;99.90;;;;;;5008824;28;20428;-74
2023/04/27 02:34:34;;;;;;;8.63;6.07;;;2.40;99.90;;;;;;5008669;28;20479;-75
2023/04/27 02:37:00;;;;;;;10.63;5.97;;;2.40;99.90;;;;;;5009090;28;20420;-74
2023/04/27 02:39:26;;;;;;;9.85;6.30;;;2.50;99.90;;;;;;5009381;28;20436;-74
2023/04/27 02:41:51;;;;;;;12.50;6.90;;;2.40;99.90;;;;;;5009268;28;20493;-74
2023/04/27 02:44:17;;;;;;;9.80;5.67;;;2.30;99.90;;;;;;5006964;28;20936;-75
2023/04/27 02:46:42;;;;;;;9.13;6.97;;;2.30;99.90;;;;;;5009431;28;20507;-75
2023/04/27 02:49:08;;;;;;;13.60;7.43;;;2.30;99.90;;;;;;5007809;28;20959;-75
2023/04/27 02:51:34;;;;;;;8.88;6.63;;;2.20;99.90;;;;;;5006952;28;20511;-77
2023/04/27 02:54:00;;;;;;;11.43;7.13;;;2.20;99.90;;;;;;4990603;28;20516;-75
2023/04/27 02:56:25;;;;;;;10.27;7.83;;;2.30;99.90;;;;;;5007434;28;20898;-73
2023/04/27 02:58:51;;;;;;;8.77;7.23;;;2.30;99.90;;;;;;5005227;28;20432;-75
2023/04/27 03:01:17;;;;;;;10.07;7.00;;;2.40;99.90;;;;;;5006054;28;21554;-76
2023/04/27 03:03:46;;;;;;;7.85;6.82;;;2.50;99.90;;;;;;5005799;28;20429;-75
2023/04/27 03:06:12;;;;;;;10.67;7.67;;;2.40;99.90;;;;;;5006023;28;20517;-74
2023/04/27 03:08:38;;;;;;;11.02;7.63;;;2.50;99.90;;;;;;5000991;28;20469;-74
2023/04/27 03:11:04;;;;;;;9.77;7.53;;;2.40;99.90;;;;;;5004655;28;20428;-76
2023/04/27 03:13:30;;;;;;;9.95;7.10;;;2.50;99.90;;;;;;5007696;28;20508;-76
2023/04/27 03:15:56;;;;;;;10.80;7.68;;;2.60;99.90;;;;;;5005199;28;20982;-75
2023/04/27 03:18:21;;;;;;;9.60;7.88;;;2.70;99.90;;;;;;5007118;28;20491;-75
2023/04/27 03:20:47;;;;;;;11.50;8.25;;;2.70;99.90;;;;;;5007948;28;20428;-76
2023/04/27 03:23:13;;;;;;;10.20;8.00;;;2.60;99.90;;;;;;5004980;28;20429;-76
2023/04/27 03:25:38;;;;;;;9.82;8.15;;;2.60;99.90;;;;;;5009172;28;20428;-74
2023/04/27 03:28:04;;;;;;;12.73;7.72;;;2.40;99.90;;;;;;5005771;28;20460;-75
2023/04/27 03:30:30;;;;;;;12.93;8.03;;;2.30;99.90;;;;;;5003430;28;20457;-74
2023/04/27 03:32:55;;;;;;;10.80;8.07;;;2.40;99.90;;;;;;5007097;28;20424;-76
2023/04/27 03:35:21;;;;;;;11.93;8.70;;;2.60;99.90;;;;;;4991284;28;20874;-73
2023/04/27 03:37:47;;;;;;;11.13;7.73;;;2.50;99.90;;;;;;5007366;28;20433;-74
2023/04/27 03:40:13;;;;;;;11.80;8.13;;;2.60;99.90;;;;;;5006032;28;20465;-74
2023/04/27 03:42:39;;;;;;;11.13;9.10;;;2.60;99.90;;;;;;5005751;28;20458;-75
2023/04/27 03:45:06;;;;;;;10.73;8.32;;;2.50;99.90;;;;;;5008517;28;20457;-73
2023/04/27 03:47:31;;;;;;;15.02;8.48;;;2.60;99.90;;;;;;5005913;28;20431;-73
2023/04/27 03:49:57;;;;;;;11.67;8.57;;;2.50;99.90;;;;;;5007243;28;20433;-74
2023/04/27 03:52:23;;;;;;;11.40;8.50;;;2.50;99.90;;;;;;5005257;28;20507;-73
2023/04/27 03:54:48;;;;;;;10.97;7.97;;;2.40;99.90;;;;;;5006695;28;20444;-77
2023/04/27 03:57:14;;;;;;;16.27;8.57;;;2.40;99.90;;;;;;5006292;28;20432;-75
2023/04/27 03:59:40;;;;;;;9.80;7.80;;;2.40;99.90;;;;;;5006746;28;20447;-75
2023/04/27 04:02:07;;;;;;;10.63;8.98;;;2.40;99.90;;;;;;5001769;28;20904;-76
2023/04/27 04:04:33;;;;;;;11.90;8.65;;;2.30;99.90;;;;;;5006859;28;20440;-74
2023/04/27 04:06:58;;;;;;;13.20;8.93;;;2.30;99.90;;;;;;5006007;28;20838;-77
2023/04/27 04:09:24;;;;;;;9.07;7.93;;;2.30;99.90;;;;;;5005336;28;20793;-75
2023/04/27 04:11:51;;;;;;;14.33;9.13;;;2.30;99.90;;;;;;5004806;28;20793;-74
2023/04/27 04:14:17;;;;;;;13.68;9.23;;;2.30;99.90;;;;;;4997088;28;20851;-74
2023/04/27 04:16:42;;;;;;;10.13;8.65;;;2.20;99.90;;;;;;5006237;28;20507;-73
2023/04/27 04:19:08;;;;;;;11.30;8.27;;;2.20;99.90;;;;;;5005711;28;20821;-73
2023/04/27 04:21:33;;;;;;;13.52;8.68;;;2.10;99.90;;;;;;5005489;28;20496;-74
2023/04/27 04:23:59;;;;;;;10.35;8.30;;;2.10;99.90;;;;;;5004602;28;20424;-74
2023/04/27 04:26:26;;;;;;;14.65;8.57;;;2.00;99.90;;;;;;4995974;28;20510;-76
2023/04/27 04:28:51;;;;;;;13.77;8.30;;;2.00;99.90;;;;;;5005018;28;20527;-74
2023/04/27 04:31:17;;;;;;;9.75;8.38;;;2.00;99.90;;;;;;5003016;28;20562;-74
2023/04/27 04:33:43;;;;;;;12.02;8.43;;;2.00;99.90;;;;;;5005529;28;20528;-75
2023/04/27 04:36:09;;;;;;;13.40;8.80;;;1.90;99.90;;;;;;5005219;28;20432;-74
2023/04/27 04:38:35;;;;;;;9.32;8.30;;;1.90;99.90;;;;;;5005474;28;20436;-74
2023/04/27 04:41:01;;;;;;;11.93;8.63;;;1.90;99.90;;;;;;5001265;28;20482;-72
2023/04/27 04:43:27;;;;;;;12.80;8.68;;;2.10;99.90;;;;;;5003135;28;20429;-74
2023/04/27 04:45:53;;;;;;;16.73;9.30;;;2.30;99.90;;;;;;5007288;28;20521;-75
2023/04/27 04:48:19;;;;;;;11.95;8.73;;;2.60;99.90;;;;;;5005159;28;20952;-74
2023/04/27 04:50:45;;;;;;;9.68;8.27;;;2.60;99.90;;;;;;5006748;28;20486;-74
2023/04/27 04:53:11;;;;;;;9.10;7.40;;;2.80;99.90;;;;;;5002173;28;20433;-74
2023/04/27 04:55:36;;;;;;;9.55;7.25;;;2.80;99.90;;;;;;5004700;28;20439;-73
2023/04/27 04:58:02;;;;;;;9.27;7.47;;;3.40;99.90;;;;;;5003706;28;20425;-73
2023/04/27 05:00:28;;;;;;;9.65;6.88;;;3.50;99.90;;;;;;5023142;28;20449;-75
2023/04/27 05:02:54;;;;;;;14.10;7.70;;;3.50;99.90;;;;;;5019409;28;20433;-75
2023/04/27 05:05:20;;;;;;;11.53;7.37;;;3.70;99.90;;;;;;5004900;28;20432;-74
2023/04/27 05:07:45;;;;;;;8.93;7.60;;;3.70;99.90;;;;;;5006312;28;20435;-74
2023/04/27 05:10:11;;;;;;;9.73;7.70;;;3.80;99.90;;;;;;5003845;28;20416;-76
2023/04/27 05:12:37;;;;;;;9.63;7.53;;;3.80;99.90;;;;;;4997067;28;20797;-75
2023/04/27 05:15:03;;;;;;;8.32;6.80;;;3.60;99.90;;;;;;5006420;28;20447;-74
2023/04/27 05:17:29;;;;;;;10.35;6.63;;;3.60;99.90;;;;;;5004695;28;20940;-72
2023/04/27 05:19:55;;;;;;;8.90;6.50;;;3.50;99.90;;;;;;5005963;28;20467;-73
2023/04/27 05:22:20;;;;;;;10.10;7.13;;;3.60;99.90;;;;;;5004104;28;20464;-74
2023/04/27 05:24:46;;;;;;;17.35;8.00;;;3.60;99.90;;;;;;5006232;28;20421;-73
2023/04/27 05:27:13;;;;;;;10.10;6.93;;;3.60;99.90;;;;;;5004687;28;20428;-74
2023/04/27 05:29:39;;;;;;;11.18;7.47;;;3.60;99.90;;;;;;5005783;28;20529;-75
2023/04/27 05:32:05;;;;;;;13.13;7.28;;;3.60;99.90;;;;;;5005749;28;20443;-76
2023/04/27 05:34:31;;;;;;;11.40;7.20;;;3.70;99.90;;;;;;5009310;28;20433;-73
2023/04/27 05:36:56;;;;;;;12.63;7.60;;;4.00;99.90;;;;;;5011416;28;20434;-73
2023/04/27 05:39:22;;;;;;;10.73;6.70;;;4.10;99.90;;;;;;4990120;28;20431;-74
2023/04/27 05:41:48;;;;;;;12.30;7.50;;;3.80;99.90;;;;;;5005670;28;20444;-73
2023/04/27 05:44:14;;;;;;;10.33;6.90;;;3.70;99.90;;;;;;4998444;28;20435;-73
2023/04/27 05:46:39;;;;;;;10.67;6.77;;;3.70;99.90;;;;;;5005161;28;20437;-73
2023/04/27 05:49:05;;;;;;;9.70;7.43;;;3.90;99.90;;;;;;5012148;28;20423;-74
2023/04/27 05:51:34;;;;;;;7.93;6.47;;;4.30;99.90;;;;;;5011996;28;20424;-74
2023/04/27 05:54:00;;;;;;;9.13;6.50;;;4.40;99.90;;;;;;5005846;28;20540;-73
2023/04/27 05:56:26;;;;;;;7.53;6.30;;;4.40;99.90;;;;;;5012827;28;20431;-74
2023/04/27 05:58:52;;;;;;;9.97;6.67;;;4.40;99.90;;;;;;4994712;28;20443;-74
2023/04/27 06:01:17;;;;;;;10.20;6.70;;;4.60;99.90;;;;;;5004972;28;20443;-74
2023/04/27 06:03:43;;;;;;;8.10;6.53;;;4.70;99.90;;;;;;4985648;28;20903;-73
2023/04/27 06:06:09;;;;;;;9.87;6.30;;;4.70;99.90;;;;;;5005136;28;20465;-73
2023/04/27 06:08:38;;;;;;;7.73;6.73;;;4.90;99.90;;;;;;5009450;28;20427;-73
2023/04/27 06:11:03;;;;;;;13.07;6.95;;;4.90;99.90;;;;;;5007956;28;20421;-74
2023/04/27 06:13:31;;;;;;;9.65;6.82;;;5.50;99.90;;;;;;5007039;28;20459;-73
2023/04/27 06:15:56;;;;;;;8.50;6.22;;;5.70;99.90;;;;;;5003732;28;20419;-76
2023/04/27 06:18:22;;;;;;;10.10;7.35;;;6.30;99.90;;;;;;5005635;28;20443;-74
2023/04/27 06:20:48;;;;;;;8.60;6.20;;;6.40;99.90;;;;;;5009298;28;20766;-73
2023/04/27 06:23:13;;;;;;;9.07;5.60;;;6.20;99.90;;;;;;5009034;28;20439;-75
2023/04/27 06:25:39;;;;;;;9.17;6.37;;;6.40;99.90;;;;;;5025154;28;20423;-75
2023/04/27 06:28:05;;;;;;;7.63;5.53;;;6.20;99.90;;;;;;5017498;28;20747;-75
2023/04/27 06:30:30;;;;;;;8.77;4.95;;;6.20;99.90;;;;;;5008898;28;20405;-75
2023/04/27 06:32:56;;;;;;;10.75;5.53;;;6.20;99.90;;;;;;5004329;28;20429;-75
2023/04/27 06:35:22;;;;;;;8.52;6.47;;;6.10;99.90;;;;;;5004681;28;20445;-76
2023/04/27 06:37:47;;;;;;;11.98;6.88;;;6.10;99.90;;;;;;5004460;28;20416;-77
2023/04/27 06:40:13;;;;;;;10.77;6.20;;;6.30;99.90;;;;;;5008713;28;20440;-75
2023/04/27 06:42:39;;;;;;;9.27;6.03;;;6.40;99.90;;;;;;5008277;28;20423;-77
2023/04/27 06:45:06;;;;;;;9.18;5.10;;;6.50;99.90;;;;;;5009438;28;20428;-76
2023/04/27 06:47:31;;;;;;;9.65;5.40;;;6.60;99.90;;;;;;5009658;28;21042;-76
2023/04/27 06:49:57;;;;;;;7.97;4.55;;;7.70;99.90;;;;;;5012040;28;20409;-76
2023/04/27 06:52:23;;;;;;;8.35;4.38;;;8.90;99.90;;;;;;5000187;28;20764;-75
2023/04/27 06:54:48;;;;;;;7.25;4.07;;;9.30;99.90;;;;;;5011070;28;20436;-76
2023/04/27 06:57:14;;;;;;;7.75;4.03;;;9.70;99.90;;;;;;5010245;28;20432;-76
2023/04/27 06:59:40;;;;;;;6.57;3.70;;;9.60;99.90;;;;;;5011061;28;20409;-75
2023/04/27 07:02:06;;;;;;;6.95;3.90;;;9.70;99.90;;;;;;5007129;28;20588;-74
2023/04/27 07:04:32;;;;;;;4.97;3.67;;;10.80;99.90;;;;;;5007275;28;20440;-76
2023/04/27 07:06:58;;;;;;;8.38;3.75;;;12.00;99.90;;;;;;5008006;28;20420;-77
2023/04/27 07:09:24;;;;;;;5.93;3.83;;;12.30;99.90;;;;;;5006869;28;20464;-77
2023/04/27 07:11:49;;;;;;;6.63;3.50;;;12.60;99.90;;;;;;5010520;28;20427;-77
2023/04/27 07:14:15;;;;;;;4.82;3.05;;;12.20;99.90;;;;;;5005596;28;20437;-76
2023/04/27 07:16:42;;;;;;;6.57;3.37;;;12.00;99.90;;;;;;5006526;28;20424;-78
2023/04/27 07:19:08;;;;;;;5.60;2.95;;;12.60;99.90;;;;;;5003134;28;20437;-78
2023/04/27 07:21:34;;;;;;;4.32;2.85;;;11.00;99.90;;;;;;5004285;28;20439;-79
2023/04/27 07:24:00;;;;;;;4.70;3.40;;;10.10;99.90;;;;;;5003562;28;20420;-77
2023/04/27 07:26:25;;;;;;;5.80;3.10;;;9.90;99.90;;;;;;5006648;28;20769;-76
2023/04/27 07:28:51;;;;;;;5.43;2.63;;;9.60;99.90;;;;;;5006478;28;20776;-79
2023/04/27 07:31:17;;;;;;;5.22;2.83;;;9.50;99.90;;;;;;5009119;28;20405;-79
2023/04/27 07:33:43;;;;;;;5.05;2.50;;;9.30;99.90;;;;;;5000510;28;20441;-79
2023/04/27 07:36:08;;;;;;;5.18;2.65;;;9.40;99.90;;;;;;5007495;28;20886;-78
2023/04/27 07:38:34;;;;;;;5.18;2.53;;;9.10;99.90;;;;;;5005360;28;20441;-76
2023/04/27 07:41:01;;;;;;;4.85;2.33;;;9.30;99.90;;;;;;5012640;28;20415;-78
2023/04/27 07:43:27;;;;;;;3.78;2.33;;;9.50;99.90;;;;;;4990965;28;20443;-78
2023/04/27 07:45:54;;;;;;;4.23;2.30;;;9.30;99.90;;;;;;5008315;28;20413;-76
2023/04/27 07:48:20;;;;;;;3.10;1.52;;;9.30;99.90;;;;;;5002662;28;20429;-76
2023/04/27 07:50:46;;;;;;;4.80;1.58;;;9.40;99.90;;;;;;5002167;28;20428;-76
2023/04/27 07:53:12;;;;;;;5.38;1.95;;;9.40;99.90;;;;;;5007806;28;20447;-79
2023/04/27 07:55:37;;;;;;;3.75;1.60;;;9.60;99.90;;;;;;5006305;28;20440;-77
2023/04/27 07:58:03;;;;;;;4.35;1.80;;;9.60;99.90;;;;;;5007686;28;20923;-77
2023/04/27 08:00:29;;;;;;;3.03;1.80;;;9.80;99.90;;;;;;5008495;28;20470;-79
2023/04/27 08:02:55;;;;;;;5.45;2.20;;;9.80;99.90;;;;;;5005442;28;21125;-77
2023/04/27 08:05:21;;;;;;;3.00;1.47;;;9.90;99.90;;;;;;5012057;28;20438;-77
2023/04/27 08:07:47;;;;;;;3.97;1.63;;;9.90;99.90;;;;;;5013572;28;20509;-78
2023/04/27 08:10:13;;;;;;;4.70;1.60;;;9.80;99.90;;;;;;5005890;28;20511;-78
2023/04/27 08:12:39;;;;;;;4.00;1.90;;;10.00;99.90;;;;;;5008977;28;20440;-79
2023/04/27 08:15:06;;;;;;;4.93;2.10;;;10.10;99.90;;;;;;5006786;28;21022;-81
2023/04/27 08:17:32;;;;;;;2.80;1.50;;;10.20;99.90;;;;;;4997619;28;20433;-77
2023/04/27 08:19:57;;;;;;;3.60;1.87;;;10.30;99.90;;;;;;5005183;28;20519;-76
2023/04/27 08:22:23;;;;;;;3.55;1.52;;;10.30;99.90;;;;;;5009000;28;20452;-79
2023/04/27 08:24:48;;;;;;;3.58;1.73;;;10.30;99.90;;;;;;5009475;28;20419;-80
2023/04/27 08:27:14;;;;;;;3.42;1.88;;;10.20;99.90;;;;;;5009801;28;20912;-79
2023/04/27 08:29:47;;;;;;;5.72;2.30;;;10.30;99.90;;;;;;5008086;28;20416;-78
2023/04/27 08:32:13;;;;;;;4.83;1.80;;;10.30;99.90;;;;;;5007391;28;20485;-77
2023/04/27 08:34:39;;;;;;;5.97;3.10;;;10.50;99.90;;;;;;5006175;28;20473;-79
2023/04/27 08:37:05;;;;;;;4.35;2.13;;;10.60;99.90;;;;;;5014065;28;20429;-78
2023/04/27 08:39:30;;;;;;;4.10;1.95;;;10.70;99.90;;;;;;5009884;28;20981;-77
2023/04/27 08:41:56;;;;;;;4.22;1.70;;;10.70;99.90;;;;;;5009603;28;20424;-78
2023/04/27 08:44:22;;;;;;;2.47;1.80;;;10.70;99.90;;;;;;5021955;28;20786;-79
2023/04/27 08:46:49;;;;;;;5.68;2.50;;;10.80;99.90;;;;;;5008142;28;20426;-79
2023/04/27 08:49:15;;;;;;;6.75;2.33;;;10.90;99.90;;;;;;4994345;28;20921;-80
2023/04/27 08:51:41;;;;;;;2.13;1.30;;;11.10;99.90;;;;;;5008898;28;20416;-79
2023/04/27 08:54:07;;;;;;;4.25;2.22;;;10.90;99.90;;;;;;5007192;28;20955;-79
2023/04/27 08:56:33;;;;;;;6.47;2.10;;;11.10;99.90;;;;;;5008304;28;20417;-81
2023/04/27 08:59:00;;;;;;;4.72;1.83;;;11.20;99.90;;;;;;5014866;28;20510;-80
2023/04/27 09:01:26;;;;;;;3.17;1.90;;;11.00;99.90;;;;;;5007369;28;20433;-80
2023/04/27 09:03:56;;;;;;;3.37;1.43;;;11.30;99.90;;;;;;5007360;28;20503;-78
2023/04/27 09:06:32;;;;;;;2.93;1.87;;;11.20;99.90;;;;;;5007625;28;20813;-78
2023/04/27 09:08:59;;;;;;;6.32;2.25;;;11.30;99.90;;;;;;5007961;28;20409;-84
2023/04/27 09:11:30;;;;;;;3.55;1.58;;;11.40;99.90;;;;;;4990039;28;20480;-85
2023/04/27 09:13:57;;;;;;;3.97;2.13;;;11.20;99.90;;;;;;5000936;28;20425;-80
2023/04/27 09:16:25;;;;;;;5.68;2.70;;;11.30;99.90;;;;;;4999442;28;20728;-76
2023/04/27 09:18:51;;;;;;;3.92;2.15;;;11.30;99.90;;;;;;5004338;28;20417;-76
2023/04/27 09:21:34;;;;;;;4.68;2.15;;;11.30;99.90;;;;;;5005322;28;20423;-77
2023/04/27 09:24:13;;;;;;;6.90;2.78;;;11.40;99.90;;;;;;5007117;28;20432;-77
2023/04/27 09:26:41;;;;;;;4.43;2.38;;;11.40;99.90;;;;;;5006581;28;20425;-78
2023/04/27 09:29:07;;;;;;;5.78;2.67;;;11.60;99.90;;;;;;5020386;28;20436;-77
2023/04/27 09:31:34;;;;;;;7.07;3.13;;;11.80;99.90;;;;;;5004874;28;20833;-78
2023/04/27 09:34:00;;;;;;;4.07;2.40;;;12.00;99.90;;;;;;5005824;28;20432;-78
2023/04/27 09:36:26;;;;;;;6.00;2.60;;;12.10;99.90;;;;;;5000987;28;20522;-77
2023/04/27 09:38:52;;;;;;;7.82;3.67;;;12.10;99.90;;;;;;5001086;28;20516;-76
2023/04/27 09:41:18;;;;;;;5.87;3.00;;;12.20;99.90;;;;;;5008566;28;20478;-75
2023/04/27 09:43:46;;;;;;;11.73;5.25;;;12.10;99.90;;;;;;5008099;28;20494;-76
2023/04/27 09:46:12;;;;;;;9.13;5.53;;;11.80;99.90;;;;;;5005660;28;20820;-76
2023/04/27 09:48:38;;;;;;;13.85;6.30;;;11.90;99.90;;;;;;4997283;28;20811;-75
2023/04/27 09:51:04;;;;;;;9.25;4.90;;;12.20;99.90;;;;;;5021902;28;20516;-75
2023/04/27 09:53:45;;;;;;;8.18;4.95;;;12.30;99.90;;;;;;5005705;28;20429;-75
2023/04/27 09:56:33;;;;;;;10.40;4.65;;;12.50;99.90;;;;;;5005777;28;20436;-75
2023/04/27 09:58:58;;;;;;;9.25;5.00;;;12.40;99.90;;;;;;5006330;28;20436;-78
2023/04/27 10:01:46;;;;;;;6.95;4.18;;;12.50;99.90;;;;;;5003048;28;20467;-75
2023/04/27 10:04:41;;;;;;;9.57;4.88;;;12.10;99.90;;;;;;5005186;28;21058;-77
2023/04/27 10:07:11;;;;;;;10.52;5.60;;;12.10;99.90;;;;;;5003524;28;21141;-76
2023/04/27 10:09:41;;;;;;;13.20;7.27;;;12.30;99.90;;;;;;5000500;28;20428;-77
2023/04/27 10:12:18;;;;;;;9.90;5.10;;;12.10;99.90;;;;;;5003489;28;20875;-77
2023/04/27 10:14:58;;;;;;;9.23;5.50;;;12.20;99.90;;;;;;5005774;28;20432;-78
2023/04/27 10:17:35;;;;;;;13.45;6.57;;;12.40;99.90;;;;;;5002648;28;20431;-76
2023/04/27 10:20:07;;;;;;;10.77;6.18;;;12.50;99.90;;;;;;5001321;28;20434;-77
2023/04/27 10:22:52;;;;;;;9.73;5.60;;;12.80;99.90;;;;;;5004130;28;20869;-75
2023/04/27 10:25:18;;;;;;;10.02;5.82;;;12.40;99.90;;;;;;5008193;28;21117;-78
2023/04/27 10:27:54;;;;;;;9.35;5.40;;;12.40;99.90;;;;;;5006005;28;20609;-75
2023/04/27 10:30:22;;;;;;;10.07;5.63;;;12.70;99.90;;;;;;5003622;28;20430;-74
2023/04/27 10:32:58;;;;;;;10.27;6.47;;;13.00;99.90;;;;;;5002004;28;20432;-75
2023/04/27 10:35:35;;;;;;;15.85;7.60;;;13.00;99.90;;;;;;5006342;28;20527;-75
2023/04/27 10:38:19;;;;;;;14.17;7.53;;;13.00;99.90;;;;;;4997659;28;20430;-76
2023/04/27 10:40:54;;;;;;;14.85;7.93;;;13.00;99.90;;;;;;5002162;28;20820;-76
2023/04/27 10:43:25;;;;;;;15.90;8.98;;;13.00;99.90;;;;;;5004922;28;21007;-75
2023/04/27 10:45:51;;;;;;;16.98;9.15;;;12.90;99.90;;;;;;4998582;28;20452;-77
2023/04/27 10:48:17;;;;;;;18.10;9.68;;;12.70;99.90;;;;;;5001911;28;21166;-78
2023/04/27 10:50:45;;;;;;;12.95;8.02;;;13.10;99.90;;;;;;5008763;28;20789;-76
2023/04/27 10:53:12;;;;;;;17.20;9.87;;;13.20;99.90;;;;;;5003565;28;20921;-77
2023/04/27 10:55:37;;;;;;;17.63;10.23;;;13.20;99.90;;;;;;5003109;28;20475;-77
2023/04/27 10:58:03;;;;;;;12.57;7.60;;;13.20;99.90;;;;;;5000523;28;20907;-76
2023/04/27 11:00:28;;;;;;;12.20;6.53;;;12.70;99.90;;;;;;5004057;28;20506;-75
2023/04/27 11:02:56;;;;;;;8.77;5.40;;;13.00;99.90;;;;;;5007110;28;20432;-76
2023/04/27 11:05:24;;;;;;;11.23;5.80;;;12.80;99.90;;;;;;4991271;28;20417;-77
2023/04/27 11:08:06;;;;;;;11.43;6.18;;;12.80;99.90;;;;;;5008888;28;20421;-77
2023/04/27 11:10:32;;;;;;;8.13;5.07;;;12.70;99.90;;;;;;5001719;28;20433;-76
2023/04/27 11:12:58;;;;;;;10.48;5.13;;;12.50;99.90;;;;;;5013539;28;20434;-78
2023/04/27 11:15:24;;;;;;;9.27;5.43;;;12.80;99.90;;;;;;5010489;28;20452;-76
2023/04/27 11:17:50;;;;;;;8.00;4.77;;;12.60;99.90;;;;;;5008131;28;20435;-74
2023/04/27 11:20:24;;;;;;;9.48;5.35;;;13.20;99.90;;;;;;5008693;28;21083;-77
2023/04/27 11:22:50;;;;;;;8.52;5.22;;;13.30;99.90;;;;;;5006992;28;20412;-76
2023/04/27 11:25:15;;;;;;;7.93;4.03;;;13.50;99.90;;;;;;5006418;28;21249;-75
2023/04/27 11:27:41;;;;;;;5.78;4.03;;;13.40;98.70;;;;;;5005390;28;20586;-77
2023/04/27 11:30:20;;;;;;;8.87;4.60;;;13.70;99.20;;;;;;5002276;28;20860;-75
2023/04/27 11:32:46;;;;;;;6.78;4.10;;;13.50;99.90;;;;;;5007219;28;20443;-77
2023/04/27 11:35:12;;;;;;;11.13;5.28;;;13.40;99.50;;;;;;5007310;28;20443;-75
2023/04/27 11:37:38;;;;;;;9.13;4.70;;;13.20;99.80;;;;;;5007063;28;21124;-78
2023/04/27 11:40:04;;;;;;;7.93;5.03;;;13.00;98.50;;;;;;5005405;28;20442;-77
2023/04/27 11:42:30;;;;;;;6.72;4.55;;;13.20;98.00;;;;;;4986189;28;20455;-76
2023/04/27 11:45:01;;;;;;;7.85;4.38;;;13.30;99.90;;;;;;5008548;28;20424;-76
2023/04/27 11:47:28;;;;;;;9.63;3.92;;;13.20;99.90;;;;;;5006539;28;20408;-78
2023/04/27 11:49:56;;;;;;;7.88;4.57;;;12.90;99.60;;;;;;5024894;28;20466;-77
2023/04/27 11:52:28;;;;;;;7.03;4.75;;;13.00;99.90;;;;;;5006682;28;20428;-76
2023/04/27 11:54:55;;;;;;;8.53;4.37;;;13.10;99.80;;;;;;5005762;28;20432;-77
2023/04/27 11:57:31;;;;;;;6.53;4.28;;;13.30;99.80;;;;;;5006077;28;20420;-77
2023/04/27 11:59:59;;;;;;;8.45;4.65;;;13.00;99.90;;;;;;5005394;28;20428;-77
2023/04/27 12:02:26;;;;;;;10.82;4.57;;;13.20;99.90;;;;;;5005808;28;20416;-77
2023/04/27 12:04:52;;;;;;;6.03;4.32;;;13.20;99.70;;;;;;5008322;28;20981;-77
2023/04/27 12:07:18;;;;;;;8.43;4.53;;;13.30;99.90;;;;;;5009476;28;20438;-78
2023/04/27 12:09:44;;;;;;;8.10;4.63;;;13.20;99.30;;;;;;5022181;28;20430;-78
2023/04/27 12:12:11;;;;;;;7.27;4.30;;;13.20;99.90;;;;;;5021782;28;20473;-77
2023/04/27 12:14:37;;;;;;;9.23;5.13;;;13.20;99.90;;;;;;5011970;28;20535;-76
2023/04/27 12:17:03;;;;;;;8.75;4.55;;;12.90;99.90;;;;;;5013290;28;20504;-75
2023/04/27 12:19:30;;;;;;;7.78;4.38;;;13.40;99.80;;;;;;5007903;28;20456;-78
2023/04/27 12:21:57;;;;;;;8.75;4.35;;;13.60;99.40;;;;;;5008350;28;20492;-77
2023/04/27 12:24:23;;;;;;;5.45;4.10;;;13.40;99.90;;;;;;5007487;28;20416;-77
2023/04/27 12:26:54;;;;;;;9.55;4.00;;;13.90;97.80;;;;;;5006214;28;20425;-78
2023/04/27 12:29:21;;;;;;;8.43;3.90;;;13.70;99.90;;;;;;5006424;28;20435;-75
2023/04/27 12:31:49;;;;;;;9.80;4.18;;;13.60;99.20;;;;;;5007782;28;21592;-77
2023/04/27 12:34:15;;;;;;;6.25;3.75;;;13.70;98.40;;;;;;5008040;28;20527;-77
2023/04/27 12:36:41;;;;;;;6.35;3.92;;;13.70;98.30;;;;;;5007702;28;20444;-76
2023/04/27 12:39:17;;;;;;;6.75;4.13;;;13.30;98.70;;;;;;5004191;28;20436;-75
2023/04/27 12:41:47;;;;;;;7.85;4.60;;;13.50;99.90;;;;;;5007067;28;20994;-76
2023/04/27 12:44:13;;;;;;;6.32;4.00;;;13.70;99.10;;;;;;5012947;28;20437;-78
2023/04/27 12:46:40;;;;;;;6.75;3.58;;;13.60;98.10;;;;;;5006642;28;20424;-76
2023/04/27 12:49:06;;;;;;;6.90;3.58;;;13.50;99.90;;;;;;5020907;28;20436;-76